createdAt,value
2022-10-17T00:00:02.227Z,100.00
2022-10-17T00:00:58.930Z,100.00
2022-10-17T00:01:55.705Z,100.00
2022-10-17T00:02:55.350Z,100.00
2022-10-17T00:03:52.030Z,100.00
2022-10-17T00:04:48.708Z,100.00
2022-10-17T00:05:47.898Z,100.00
2022-10-17T00:06:44.599Z,100.00
2022-10-17T00:07:41.469Z,100.00
2022-10-17T00:08:40.770Z,100.00
2022-10-17T00:09:37.496Z,100.00
2022-10-17T00:10:34.490Z,100.00
2022-10-17T00:11:31.182Z,100.00
2022-10-17T00:12:27.885Z,100.00
2022-10-17T00:13:25.696Z,100.00
2022-10-17T00:14:22.454Z,100.00
2022-10-17T00:15:20.950Z,100.00
2022-10-17T00:16:30.318Z,100.00
2022-10-17T00:17:27.186Z,100.00
2022-10-17T00:18:24.338Z,100.00
2022-10-17T00:19:21.033Z,100.00
2022-10-17T00:20:18.297Z,100.00
2022-10-17T00:21:17.369Z,100.00
2022-10-17T00:22:14.082Z,100.00
2022-10-17T00:23:10.922Z,100.00
2022-10-17T00:24:07.611Z,100.00
2022-10-17T00:25:04.792Z,100.00
2022-10-17T00:26:05.376Z,100.00
2022-10-17T00:27:02.120Z,100.00
2022-10-17T00:27:58.907Z,100.00
2022-10-17T00:28:55.728Z,100.00
2022-10-17T00:29:52.578Z,100.00
2022-10-17T00:30:58.910Z,100.00
2022-10-17T00:31:56.973Z,100.00
2022-10-17T00:32:53.679Z,100.00
2022-10-17T00:33:51.843Z,100.00
2022-10-17T00:34:48.557Z,100.00
2022-10-17T00:35:45.293Z,100.00
2022-10-17T00:36:41.976Z,100.00
2022-10-17T00:37:38.750Z,100.00
2022-10-17T00:38:36.906Z,100.00
2022-10-17T00:39:33.652Z,100.00
2022-10-17T00:40:30.389Z,100.00
2022-10-17T00:41:30.360Z,100.00
2022-10-17T00:42:28.467Z,100.00
2022-10-17T00:43:26.629Z,100.00
2022-10-17T00:44:29.452Z,100.00
2022-10-17T00:45:31.153Z,100.00
2022-10-17T00:46:33.600Z,100.00
2022-10-17T00:47:31.018Z,100.00
2022-10-17T00:48:28.185Z,100.00
2022-10-17T00:49:30.288Z,100.00
2022-10-17T00:50:28.627Z,100.00
2022-10-17T00:51:33.966Z,100.00
2022-10-17T00:52:31.934Z,100.00
2022-10-17T00:53:28.974Z,100.00
2022-10-17T00:54:33.976Z,100.00
2022-10-17T00:55:35.655Z,100.00
2022-10-17T00:56:33.148Z,100.00
2022-10-17T00:57:32.617Z,100.00
2022-10-17T00:58:29.326Z,100.00
2022-10-17T00:59:26.849Z,100.00
2022-10-17T01:00:24.661Z,100.00
2022-10-17T01:01:21.387Z,100.00
2022-10-17T01:02:21.625Z,100.00
2022-10-17T01:03:18.644Z,100.00
2022-10-17T01:04:15.883Z,100.00
2022-10-17T01:05:13.241Z,100.00
2022-10-17T01:06:10.113Z,100.00
2022-10-17T01:07:06.844Z,100.00
2022-10-17T01:08:04.137Z,100.00
2022-10-17T01:09:01.036Z,100.00
2022-10-17T01:09:57.961Z,100.00
2022-10-17T01:11:17.486Z,100.00
2022-10-17T01:12:34.453Z,100.00
2022-10-17T01:13:46.859Z,100.00
2022-10-17T01:15:07.775Z,100.00
2022-10-17T01:16:39.067Z,100.00
2022-10-17T01:18:00.249Z,100.00
2022-10-17T01:19:07.266Z,100.00
2022-10-17T01:20:22.857Z,100.00
2022-10-17T01:21:44.724Z,100.00
2022-10-17T01:22:52.683Z,100.00
2022-10-17T01:24:11.090Z,100.00
2022-10-17T01:25:25.881Z,100.00
2022-10-17T01:26:54.762Z,100.00
2022-10-17T01:28:03.349Z,100.00
2022-10-17T01:29:35.701Z,100.00
2022-10-17T01:30:59.426Z,100.00
2022-10-17T01:32:02.406Z,100.00
2022-10-17T01:33:10.467Z,100.00
2022-10-17T01:34:13.381Z,100.00
2022-10-17T01:35:17.661Z,100.00
2022-10-17T01:36:55.182Z,100.00
2022-10-17T01:38:23.445Z,100.00
2022-10-17T01:39:38.385Z,100.00
2022-10-17T01:40:48.747Z,100.00
2022-10-17T01:42:11.420Z,100.00
2022-10-17T01:43:31.320Z,100.00
2022-10-17T01:44:53.127Z,100.00
2022-10-17T01:46:00.397Z,100.00
2022-10-17T01:47:05.572Z,100.00
2022-10-17T01:48:08.984Z,100.00
2022-10-17T01:49:10.037Z,100.00
2022-10-17T01:50:15.244Z,100.00
2022-10-17T01:51:30.519Z,100.00
2022-10-17T01:52:34.727Z,100.00
2022-10-17T01:53:44.680Z,100.00
2022-10-17T01:54:50.120Z,100.00
2022-10-17T01:55:54.136Z,100.00
2022-10-17T01:56:58.662Z,100.00
2022-10-17T01:58:06.169Z,100.00
2022-10-17T01:59:11.914Z,100.00
2022-10-17T02:00:22.515Z,100.00
2022-10-17T02:01:22.707Z,100.00
2022-10-17T02:02:22.927Z,100.00
2022-10-17T02:03:21.920Z,100.00
2022-10-17T02:04:18.780Z,100.00
2022-10-17T02:05:20.315Z,100.00
2022-10-17T02:06:17.009Z,100.00
2022-10-17T02:07:13.815Z,100.00
2022-10-17T02:08:10.626Z,100.00
2022-10-17T02:09:20.151Z,100.00
2022-10-17T02:10:30.530Z,100.00
2022-10-17T02:11:27.861Z,100.00
2022-10-17T02:12:30.355Z,100.00
2022-10-17T02:13:39.144Z,100.00
2022-10-17T02:14:49.518Z,100.00
2022-10-17T02:15:58.505Z,100.00
2022-10-17T02:17:19.639Z,100.00
2022-10-17T02:18:44.699Z,100.00
2022-10-17T02:19:56.946Z,100.00
2022-10-17T02:21:01.353Z,100.00
2022-10-17T02:22:06.658Z,100.00
2022-10-17T02:23:30.437Z,100.00
2022-10-17T02:24:36.108Z,100.00
2022-10-17T02:25:46.873Z,100.00
2022-10-17T02:26:57.470Z,100.00
2022-10-17T02:28:22.447Z,100.00
2022-10-17T02:29:47.824Z,100.00
2022-10-17T02:31:02.699Z,100.00
2022-10-17T02:32:17.273Z,100.00
2022-10-17T02:33:23.326Z,100.00
2022-10-17T02:34:30.846Z,100.00
2022-10-17T02:35:33.021Z,100.00
2022-10-17T02:36:36.869Z,100.00
2022-10-17T02:37:36.466Z,100.00
2022-10-17T02:38:35.604Z,100.00
2022-10-17T02:39:36.684Z,100.00
2022-10-17T02:40:34.694Z,100.00
2022-10-17T02:41:33.223Z,100.00
2022-10-17T02:42:33.177Z,100.00
2022-10-17T02:43:30.372Z,100.00
2022-10-17T02:44:30.494Z,100.00
2022-10-17T02:45:30.410Z,100.00
2022-10-17T02:46:30.367Z,100.00
2022-10-17T02:47:34.849Z,100.00
2022-10-17T02:48:40.366Z,100.00
2022-10-17T02:49:44.218Z,100.00
2022-10-17T02:51:10.008Z,100.00
2022-10-17T02:52:15.854Z,100.00
2022-10-17T02:53:20.914Z,100.00
2022-10-17T02:54:31.801Z,100.00
2022-10-17T02:55:39.161Z,100.00
2022-10-17T02:56:54.978Z,100.00
2022-10-17T02:57:58.949Z,100.00
2022-10-17T02:59:00.085Z,100.00
2022-10-17T03:00:00.913Z,100.00
2022-10-17T03:00:59.086Z,100.00
2022-10-17T03:01:55.999Z,100.00
2022-10-17T03:02:54.127Z,100.00
2022-10-17T03:03:51.063Z,100.00
2022-10-17T03:04:47.774Z,100.00
2022-10-17T03:05:44.469Z,100.00
2022-10-17T03:06:41.976Z,100.00
2022-10-17T03:07:38.760Z,100.00
2022-10-17T03:08:35.500Z,100.00
2022-10-17T03:09:32.272Z,100.00
2022-10-17T03:10:29.001Z,100.00
2022-10-17T03:11:25.695Z,100.00
2022-10-17T03:12:22.366Z,100.00
2022-10-17T03:13:19.627Z,100.00
2022-10-17T03:14:16.459Z,100.00
2022-10-17T03:15:14.191Z,100.00
2022-10-17T03:16:10.909Z,100.00
2022-10-17T03:17:07.624Z,100.00
2022-10-17T03:18:04.345Z,100.00
2022-10-17T03:19:01.061Z,100.00
2022-10-17T03:19:57.902Z,100.00
2022-10-17T03:20:54.602Z,100.00
2022-10-17T03:21:51.366Z,100.00
2022-10-17T03:22:48.045Z,100.00
2022-10-17T03:23:44.765Z,100.00
2022-10-17T03:24:41.461Z,100.00
2022-10-17T03:25:38.178Z,100.00
2022-10-17T03:26:34.927Z,100.00
2022-10-17T03:27:31.957Z,100.00
2022-10-17T03:28:28.982Z,100.00
2022-10-17T03:29:25.734Z,100.00
2022-10-17T03:30:22.394Z,100.00
2022-10-17T03:31:19.108Z,100.00
2022-10-17T03:32:15.796Z,100.00
2022-10-17T03:33:12.478Z,100.00
2022-10-17T03:34:09.186Z,100.00
2022-10-17T03:35:06.121Z,100.00
2022-10-17T03:36:11.344Z,100.00
2022-10-17T03:37:08.100Z,100.00
2022-10-17T03:38:04.780Z,100.00
2022-10-17T03:39:01.823Z,100.00
2022-10-17T03:39:58.520Z,100.00
2022-10-17T03:40:56.517Z,100.00
2022-10-17T03:41:53.239Z,100.00
2022-10-17T03:42:49.921Z,100.00
2022-10-17T03:43:46.677Z,100.00
2022-10-17T03:44:43.373Z,100.00
2022-10-17T03:45:40.065Z,100.00
2022-10-17T03:46:36.767Z,100.00
2022-10-17T03:47:33.510Z,100.00
2022-10-17T03:48:31.619Z,100.00
2022-10-17T03:49:28.330Z,100.00
2022-10-17T03:50:25.203Z,100.00
2022-10-17T03:51:22.086Z,100.00
2022-10-17T03:52:18.942Z,100.00
2022-10-17T03:53:15.799Z,100.00
2022-10-17T03:54:12.605Z,100.00
2022-10-17T03:55:09.447Z,100.00
2022-10-17T03:56:23.419Z,100.00
2022-10-17T03:57:20.280Z,100.00
2022-10-17T03:58:16.974Z,100.00
2022-10-17T03:59:15.373Z,100.00
2022-10-17T04:00:12.754Z,100.00
2022-10-17T04:01:12.157Z,100.00
2022-10-17T04:02:08.916Z,100.00
2022-10-17T04:03:05.673Z,100.00
2022-10-17T04:04:02.398Z,100.00
2022-10-17T04:04:59.158Z,100.00
2022-10-17T04:05:59.681Z,100.00
2022-10-17T04:06:56.369Z,100.00
2022-10-17T04:07:53.071Z,100.00
2022-10-17T04:08:50.461Z,100.00
2022-10-17T04:09:47.254Z,100.00
2022-10-17T04:10:43.971Z,100.00
2022-10-17T04:11:40.775Z,100.00
2022-10-17T04:12:37.742Z,100.00
2022-10-17T04:13:36.030Z,100.00
2022-10-17T04:14:32.736Z,100.00
2022-10-17T04:15:29.483Z,100.00
2022-10-17T04:16:27.125Z,100.00
2022-10-17T04:17:23.830Z,100.00
2022-10-17T04:18:20.502Z,100.00
2022-10-17T04:19:17.389Z,100.00
2022-10-17T04:20:14.126Z,100.00
2022-10-17T04:21:12.236Z,100.00
2022-10-17T04:22:08.948Z,100.00
2022-10-17T04:23:05.625Z,100.00
2022-10-17T04:24:02.339Z,100.00
2022-10-17T04:24:59.044Z,100.00
2022-10-17T04:25:57.750Z,100.00
2022-10-17T04:26:55.051Z,100.00
2022-10-17T04:27:51.767Z,100.00
2022-10-17T04:28:48.469Z,100.00
2022-10-17T04:29:45.235Z,100.00
2022-10-17T04:30:45.094Z,100.00
2022-10-17T04:31:42.550Z,100.00
2022-10-17T04:32:39.575Z,100.00
2022-10-17T04:33:36.303Z,100.00
2022-10-17T04:34:33.120Z,100.00
2022-10-17T04:35:29.834Z,100.00
2022-10-17T04:36:26.510Z,100.00
2022-10-17T04:37:23.228Z,100.00
2022-10-17T04:38:20.701Z,100.00
2022-10-17T04:39:19.540Z,100.00
2022-10-17T04:40:16.308Z,100.00
2022-10-17T04:41:16.205Z,100.00
2022-10-17T04:42:12.893Z,100.00
2022-10-17T04:43:09.572Z,100.00
2022-10-17T04:44:06.332Z,100.00
2022-10-17T04:45:03.203Z,100.00
2022-10-17T04:46:02.655Z,100.00
2022-10-17T04:46:59.491Z,100.00
2022-10-17T04:47:56.252Z,100.00
2022-10-17T04:48:54.099Z,100.00
2022-10-17T04:49:50.799Z,100.00
2022-10-17T04:51:00.642Z,100.00
2022-10-17T04:51:57.312Z,100.00
2022-10-17T04:52:54.070Z,100.00
2022-10-17T04:53:50.833Z,100.00
2022-10-17T04:54:47.501Z,100.00
2022-10-17T04:55:44.222Z,100.00
2022-10-17T04:56:41.165Z,100.00
2022-10-17T04:57:37.848Z,100.00
2022-10-17T04:58:34.775Z,100.00
2022-10-17T04:59:31.489Z,100.00
2022-10-17T05:00:28.218Z,100.00
2022-10-17T05:01:26.056Z,100.00
2022-10-17T05:02:23.195Z,100.00
2022-10-17T05:03:19.902Z,100.00
2022-10-17T05:04:18.147Z,100.00
2022-10-17T05:05:16.651Z,100.00
2022-10-17T05:06:20.852Z,100.00
2022-10-17T05:07:17.530Z,100.00
2022-10-17T05:08:14.261Z,100.00
2022-10-17T05:09:10.930Z,100.00
2022-10-17T05:10:08.286Z,100.00
2022-10-17T05:11:06.694Z,100.00
2022-10-17T05:12:05.494Z,100.00
2022-10-17T05:13:05.505Z,100.00
2022-10-17T05:14:02.667Z,100.00
2022-10-17T05:14:59.498Z,100.00
2022-10-17T05:16:01.007Z,100.00
2022-10-17T05:16:57.710Z,100.00
2022-10-17T05:17:56.089Z,100.00
2022-10-17T05:18:55.317Z,100.00
2022-10-17T05:19:52.077Z,100.00
2022-10-17T05:20:48.790Z,100.00
2022-10-17T05:21:45.596Z,100.00
2022-10-17T05:22:42.491Z,100.00
2022-10-17T05:23:39.237Z,100.00
2022-10-17T05:24:36.030Z,100.00
2022-10-17T05:25:32.848Z,100.00
2022-10-17T05:26:29.557Z,100.00
2022-10-17T05:27:26.475Z,100.00
2022-10-17T05:28:24.085Z,100.00
2022-10-17T05:29:20.947Z,100.00
2022-10-17T05:30:18.036Z,100.00
2022-10-17T05:31:14.963Z,100.00
2022-10-17T05:32:11.779Z,100.00
2022-10-17T05:33:08.474Z,100.00
2022-10-17T05:34:07.046Z,100.00
2022-10-17T05:35:06.398Z,100.00
2022-10-17T05:36:03.570Z,100.00
2022-10-17T05:37:00.262Z,100.00
2022-10-17T05:37:59.131Z,100.00
2022-10-17T05:38:55.930Z,100.00
2022-10-17T05:39:52.702Z,100.00
2022-10-17T05:40:49.488Z,100.00
2022-10-17T05:41:46.786Z,100.00
2022-10-17T05:42:49.853Z,100.00
2022-10-17T05:43:46.897Z,100.00
2022-10-17T05:44:43.608Z,100.00
2022-10-17T05:45:40.831Z,100.00
2022-10-17T05:46:37.581Z,100.00
2022-10-17T05:47:34.293Z,100.00
2022-10-17T05:48:31.025Z,100.00
2022-10-17T05:49:45.094Z,100.00
2022-10-17T05:50:44.454Z,100.00
2022-10-17T05:51:41.182Z,100.00
2022-10-17T05:52:38.054Z,100.00
2022-10-17T05:53:37.250Z,100.00
2022-10-17T05:54:34.556Z,100.00
2022-10-17T05:55:31.326Z,100.00
2022-10-17T05:56:28.015Z,100.00
2022-10-17T05:57:26.460Z,100.00
2022-10-17T05:58:45.446Z,100.00
2022-10-17T05:59:39.778Z,100.00
2022-10-17T06:00:36.541Z,100.00
2022-10-17T06:01:33.384Z,100.00
2022-10-17T06:02:30.366Z,100.00
2022-10-17T06:03:27.811Z,100.00
2022-10-17T06:04:24.646Z,100.00
2022-10-17T06:05:22.247Z,100.00
2022-10-17T06:06:19.779Z,100.00
2022-10-17T06:07:17.132Z,100.00
2022-10-17T06:08:13.884Z,100.00
2022-10-17T06:09:10.598Z,100.00
2022-10-17T06:10:07.651Z,100.00
2022-10-17T06:11:07.679Z,100.00
2022-10-17T06:12:08.074Z,100.00
2022-10-17T06:13:04.810Z,100.00
2022-10-17T06:14:02.244Z,100.00
2022-10-17T06:14:59.065Z,100.00
2022-10-17T06:15:55.815Z,100.00
2022-10-17T06:16:52.533Z,100.00
2022-10-17T06:17:49.231Z,100.00
2022-10-17T06:18:45.969Z,100.00
2022-10-17T06:19:44.563Z,100.00
2022-10-17T06:20:45.252Z,100.00
2022-10-17T06:21:42.931Z,100.00
2022-10-17T06:22:39.636Z,100.00
2022-10-17T06:23:36.871Z,100.00
2022-10-17T06:24:33.575Z,100.00
2022-10-17T06:25:34.243Z,100.00
2022-10-17T06:26:30.940Z,100.00
2022-10-17T06:27:27.667Z,100.00
2022-10-17T06:28:24.419Z,100.00
2022-10-17T06:29:21.510Z,100.00
2022-10-17T06:30:18.259Z,100.00
2022-10-17T06:31:17.884Z,100.00
2022-10-17T06:32:15.329Z,100.00
2022-10-17T06:33:12.139Z,100.00
2022-10-17T06:34:08.855Z,100.00
2022-10-17T06:35:06.055Z,100.00
2022-10-17T06:36:04.344Z,100.00
2022-10-17T06:37:01.061Z,100.00
2022-10-17T06:37:57.855Z,100.00
2022-10-17T06:38:54.589Z,100.00
2022-10-17T06:39:51.353Z,100.00
2022-10-17T06:40:48.045Z,100.00
2022-10-17T06:41:44.865Z,100.00
2022-10-17T06:42:41.634Z,100.00
2022-10-17T06:43:38.549Z,100.00
2022-10-17T06:44:35.486Z,100.00
2022-10-17T06:45:32.166Z,100.00
2022-10-17T06:46:29.887Z,100.00
2022-10-17T06:47:26.988Z,100.00
2022-10-17T06:48:23.929Z,100.00
2022-10-17T06:49:20.678Z,100.00
2022-10-17T06:50:17.513Z,100.00
2022-10-17T06:51:14.237Z,100.00
2022-10-17T06:52:11.001Z,100.00
2022-10-17T06:53:07.701Z,100.00
2022-10-17T06:54:04.869Z,100.00
2022-10-17T06:56:04.345Z,100.00
2022-10-17T06:57:01.063Z,100.00
2022-10-17T06:57:57.847Z,100.00
2022-10-17T06:58:54.780Z,100.00
2022-10-17T06:59:51.524Z,100.00
2022-10-17T07:00:48.325Z,100.00
2022-10-17T07:01:47.145Z,100.00
2022-10-17T07:02:44.363Z,100.00
2022-10-17T07:03:41.337Z,100.00
2022-10-17T07:04:38.171Z,100.00
2022-10-17T07:05:34.866Z,100.00
2022-10-17T07:06:32.173Z,100.00
2022-10-17T07:07:32.516Z,100.00
2022-10-17T07:08:29.807Z,100.00
2022-10-17T07:09:27.782Z,100.00
2022-10-17T07:10:24.502Z,100.00
2022-10-17T07:11:22.893Z,100.00
2022-10-17T07:12:19.687Z,100.00
2022-10-17T07:13:16.981Z,100.00
2022-10-17T07:14:13.718Z,100.00
2022-10-17T07:15:10.870Z,100.00
2022-10-17T07:16:08.410Z,100.00
2022-10-17T07:17:05.311Z,100.00
2022-10-17T07:18:02.039Z,100.00
2022-10-17T07:18:58.723Z,100.00
2022-10-17T07:19:55.595Z,100.00
2022-10-17T07:20:55.848Z,100.00
2022-10-17T07:21:54.057Z,100.00
2022-10-17T07:22:50.743Z,100.00
2022-10-17T07:23:47.425Z,100.00
2022-10-17T07:24:44.190Z,100.00
2022-10-17T07:25:40.910Z,100.00
2022-10-17T07:26:37.642Z,100.00
2022-10-17T07:27:34.426Z,100.00
2022-10-17T07:28:31.177Z,100.00
2022-10-17T07:29:28.003Z,100.00
2022-10-17T07:30:25.086Z,100.00
2022-10-17T07:31:23.630Z,100.00
2022-10-17T07:32:20.320Z,100.00
2022-10-17T07:33:17.018Z,100.00
2022-10-17T07:34:13.727Z,100.00
2022-10-17T07:35:11.761Z,100.00
2022-10-17T07:36:09.783Z,100.00
2022-10-17T07:37:07.428Z,100.00
2022-10-17T07:38:04.114Z,100.00
2022-10-17T07:39:00.814Z,100.00
2022-10-17T07:39:57.516Z,100.00
2022-10-17T07:41:05.933Z,100.00
2022-10-17T07:42:02.727Z,100.00
2022-10-17T07:43:00.022Z,100.00
2022-10-17T07:43:56.742Z,100.00
2022-10-17T07:44:53.426Z,100.00
2022-10-17T07:45:50.562Z,100.00
2022-10-17T07:46:47.252Z,100.00
2022-10-17T07:47:43.974Z,100.00
2022-10-17T07:48:40.731Z,100.00
2022-10-17T07:49:42.446Z,100.00
2022-10-17T07:50:39.567Z,100.00
2022-10-17T07:51:36.378Z,100.00
2022-10-17T07:52:33.267Z,100.00
2022-10-17T07:53:30.304Z,100.00
2022-10-17T07:54:27.106Z,100.00
2022-10-17T07:55:23.799Z,100.00
2022-10-17T07:56:24.619Z,100.00
2022-10-17T07:57:21.330Z,100.00
2022-10-17T07:58:18.754Z,100.00
2022-10-17T07:59:15.600Z,100.00
2022-10-17T08:00:12.686Z,100.00
2022-10-17T08:01:15.537Z,100.00
2022-10-17T08:02:22.834Z,100.00
2022-10-17T08:03:19.613Z,100.00
2022-10-17T08:04:17.019Z,100.00
2022-10-17T08:05:13.841Z,100.00
2022-10-17T08:06:10.634Z,100.00
2022-10-17T08:07:21.753Z,100.00
2022-10-17T08:08:21.001Z,100.00
2022-10-17T08:09:17.930Z,100.00
2022-10-17T08:10:16.121Z,100.00
2022-10-17T08:11:14.963Z,100.00
2022-10-17T08:12:14.606Z,100.00
2022-10-17T08:13:11.352Z,100.00
2022-10-17T08:14:08.033Z,100.00
2022-10-17T08:15:06.976Z,100.00
2022-10-17T08:16:07.466Z,100.00
2022-10-17T08:17:04.484Z,100.00
2022-10-17T08:18:01.347Z,100.00
2022-10-17T08:18:58.134Z,100.00
2022-10-17T08:19:54.875Z,100.00
2022-10-17T08:20:51.586Z,100.00
2022-10-17T08:21:50.085Z,100.00
2022-10-17T08:22:53.211Z,100.00
2022-10-17T08:23:49.924Z,100.00
2022-10-17T08:24:46.694Z,100.00
2022-10-17T08:25:43.374Z,100.00
2022-10-17T08:26:42.470Z,99.95
2022-10-17T08:27:40.712Z,100.00
2022-10-17T08:28:39.202Z,99.88
2022-10-17T08:29:36.049Z,98.84
2022-10-17T08:30:32.847Z,99.76
2022-10-17T08:31:29.762Z,100.00
2022-10-17T08:32:28.623Z,99.11
2022-10-17T08:33:25.579Z,98.07
2022-10-17T08:34:22.289Z,98.52
2022-10-17T08:35:19.049Z,97.99
2022-10-17T08:36:18.854Z,98.70
2022-10-17T08:37:15.620Z,100.00
2022-10-17T08:38:13.458Z,100.00
2022-10-17T08:39:10.530Z,98.15
2022-10-17T08:40:14.899Z,93.73
2022-10-17T08:41:52.963Z,92.95
2022-10-17T08:43:14.145Z,91.32
2022-10-17T08:44:29.197Z,88.81
2022-10-17T08:45:35.721Z,88.40
2022-10-17T08:46:40.912Z,87.13
2022-10-17T08:47:48.622Z,86.75
2022-10-17T08:48:49.879Z,86.68
2022-10-17T08:49:58.021Z,87.71
2022-10-17T08:51:04.274Z,87.90
2022-10-17T08:52:22.463Z,87.30
2022-10-17T08:53:35.533Z,89.46
2022-10-17T08:54:46.192Z,88.33
2022-10-17T08:55:47.854Z,87.26
2022-10-17T08:56:49.774Z,87.26
2022-10-17T08:57:48.319Z,84.32
2022-10-17T08:58:45.255Z,84.50
2022-10-17T08:59:44.603Z,84.13
2022-10-17T09:01:10.521Z,81.12
2022-10-17T09:02:15.369Z,80.59
2022-10-17T09:03:12.140Z,79.32
2022-10-17T09:04:24.469Z,77.61
2022-10-17T09:05:26.484Z,74.85
2022-10-17T09:06:30.011Z,74.09
2022-10-17T09:07:35.595Z,73.48
2022-10-17T09:08:44.294Z,73.82
2022-10-17T09:10:15.542Z,73.41
2022-10-17T09:11:38.660Z,72.54
2022-10-17T09:12:57.939Z,72.40
2022-10-17T09:14:25.202Z,71.08
2022-10-17T09:15:40.441Z,71.04
2022-10-17T09:16:49.248Z,70.25
2022-10-17T09:17:59.854Z,66.72
2022-10-17T09:19:37.396Z,63.06
2022-10-17T09:20:44.801Z,62.06
2022-10-17T09:21:53.717Z,63.62
2022-10-17T09:23:15.324Z,62.59
2022-10-17T09:24:31.276Z,61.10
2022-10-17T09:25:31.512Z,60.65
2022-10-17T09:26:28.676Z,59.11
2022-10-17T09:28:02.558Z,57.76
2022-10-17T09:29:01.112Z,57.95
2022-10-17T09:30:33.475Z,59.23
2022-10-17T09:32:01.445Z,58.62
2022-10-17T09:32:58.221Z,59.55
2022-10-17T09:34:01.943Z,59.87
2022-10-17T09:34:58.901Z,59.59
2022-10-17T09:35:58.618Z,59.05
2022-10-17T09:36:58.642Z,58.10
2022-10-17T09:37:55.421Z,58.54
2022-10-17T09:38:59.030Z,58.90
2022-10-17T09:39:55.983Z,58.04
2022-10-17T09:41:00.037Z,58.50
2022-10-17T09:42:01.693Z,58.78
2022-10-17T09:43:02.666Z,58.24
2022-10-17T09:44:12.121Z,56.15
2022-10-17T09:45:19.572Z,54.72
2022-10-17T09:46:38.342Z,56.20
2022-10-17T09:47:46.348Z,54.88
2022-10-17T09:48:54.326Z,53.89
2022-10-17T09:49:52.164Z,53.93
2022-10-17T09:50:57.939Z,53.17
2022-10-17T09:52:12.367Z,52.05
2022-10-17T09:53:34.921Z,52.29
2022-10-17T09:54:47.899Z,51.86
2022-10-17T09:55:55.568Z,51.01
2022-10-17T09:56:58.265Z,51.36
2022-10-17T09:58:00.926Z,51.02
2022-10-17T09:58:59.270Z,50.92
2022-10-17T09:59:57.657Z,50.69
2022-10-17T10:01:21.060Z,50.14
2022-10-17T10:02:24.149Z,50.37
2022-10-17T10:03:26.301Z,49.96
2022-10-17T10:04:23.106Z,47.85
2022-10-17T10:05:21.051Z,48.07
2022-10-17T10:06:20.326Z,46.59
2022-10-17T10:07:18.905Z,46.44
2022-10-17T10:08:19.017Z,47.31
2022-10-17T10:09:28.380Z,46.69
2022-10-17T10:10:28.134Z,47.80
2022-10-17T10:11:45.230Z,44.47
2022-10-17T10:12:42.497Z,45.25
2022-10-17T10:13:39.234Z,44.15
2022-10-17T10:14:39.627Z,44.14
2022-10-17T10:15:43.635Z,43.58
2022-10-17T10:16:43.876Z,43.65
2022-10-17T10:17:42.170Z,42.44
2022-10-17T10:18:38.847Z,42.97
2022-10-17T10:19:38.909Z,43.24
2022-10-17T10:20:37.953Z,42.64
2022-10-17T10:21:37.205Z,42.07
2022-10-17T10:22:34.203Z,42.72
2022-10-17T10:23:30.950Z,42.55
2022-10-17T10:24:31.066Z,43.07
2022-10-17T10:25:27.927Z,41.68
2022-10-17T10:26:29.918Z,39.42
2022-10-17T10:27:29.683Z,40.44
2022-10-17T10:28:32.985Z,40.15
2022-10-17T10:29:36.758Z,40.22
2022-10-17T10:30:36.232Z,39.62
2022-10-17T10:31:39.919Z,37.91
2022-10-17T10:33:56.790Z,38.64
2022-10-17T10:35:08.635Z,38.96
2022-10-17T10:36:07.877Z,39.16
2022-10-17T10:37:17.932Z,38.54
2022-10-17T10:38:18.128Z,39.39
2022-10-17T10:39:41.078Z,39.17
2022-10-17T10:41:11.306Z,39.43
2022-10-17T10:42:23.362Z,39.20
2022-10-17T10:43:36.907Z,39.60
2022-10-17T10:44:38.321Z,37.21
2022-10-17T10:45:52.822Z,36.39
2022-10-17T10:47:07.137Z,36.86
2022-10-17T10:48:23.920Z,36.67
2022-10-17T10:49:31.639Z,36.26
2022-10-17T10:50:45.509Z,36.56
2022-10-17T10:51:47.781Z,36.42
2022-10-17T10:53:08.512Z,35.98
2022-10-17T10:55:49.274Z,36.31
2022-10-17T10:56:58.172Z,36.48
2022-10-17T10:58:01.441Z,36.71
2022-10-17T10:59:04.262Z,36.92
2022-10-17T11:00:17.705Z,36.61
2022-10-17T11:01:25.551Z,36.34
2022-10-17T11:02:35.316Z,37.09
2022-10-17T11:03:58.754Z,37.18
2022-10-17T11:05:22.455Z,37.43
2022-10-17T11:06:28.829Z,37.27
2022-10-17T11:07:36.687Z,37.15
2022-10-17T11:08:48.638Z,37.21
2022-10-17T11:10:15.251Z,37.85
2022-10-17T11:11:27.967Z,37.97
2022-10-17T11:12:24.708Z,38.17
2022-10-17T11:13:29.083Z,37.89
2022-10-17T11:14:53.737Z,37.96
2022-10-17T11:16:04.457Z,38.22
2022-10-17T11:17:22.605Z,38.85
2022-10-17T11:18:34.447Z,37.97
2022-10-17T11:20:00.759Z,36.66
2022-10-17T11:21:08.076Z,36.38
2022-10-17T11:22:26.598Z,36.81
2022-10-17T11:24:02.258Z,37.51
2022-10-17T11:25:13.330Z,36.39
2022-10-17T11:26:29.131Z,36.85
2022-10-17T11:27:30.079Z,35.82
2022-10-17T11:28:26.875Z,36.13
2022-10-17T11:29:29.775Z,36.33
2022-10-17T11:30:35.872Z,35.91
2022-10-17T11:31:40.167Z,36.58
2022-10-17T11:32:40.891Z,35.80
2022-10-17T11:33:59.032Z,36.41
2022-10-17T11:35:04.334Z,36.67
2022-10-17T11:36:06.818Z,36.46
2022-10-17T11:37:19.608Z,36.25
2022-10-17T11:38:45.039Z,36.84
2022-10-17T11:40:08.228Z,35.24
2022-10-17T11:41:11.725Z,35.72
2022-10-17T11:42:41.458Z,36.40
2022-10-17T11:43:49.254Z,36.67
2022-10-17T11:44:46.077Z,37.25
2022-10-17T11:45:53.276Z,37.39
2022-10-17T11:47:00.155Z,37.96
2022-10-17T11:48:17.544Z,37.35
2022-10-17T11:49:21.949Z,38.14
2022-10-17T11:52:01.532Z,37.85
2022-10-17T11:53:08.518Z,37.66
2022-10-17T11:54:26.715Z,38.38
2022-10-17T11:55:26.782Z,37.70
2022-10-17T11:57:04.726Z,37.55
2022-10-17T11:58:35.904Z,37.63
2022-10-17T12:00:03.508Z,36.79
2022-10-17T12:01:32.289Z,36.31
2022-10-17T12:02:36.536Z,35.41
2022-10-17T12:03:45.272Z,35.37
2022-10-17T12:05:06.984Z,35.67
2022-10-17T12:06:12.179Z,36.77
2022-10-17T12:07:11.684Z,36.85
2022-10-17T12:08:32.399Z,37.26
2022-10-17T12:09:49.989Z,37.50
2022-10-17T12:11:22.070Z,36.58
2022-10-17T12:12:32.486Z,36.09
2022-10-17T12:13:29.770Z,35.78
2022-10-17T12:14:47.964Z,35.62
2022-10-17T12:15:46.658Z,35.50
2022-10-17T12:16:45.743Z,36.25
2022-10-17T12:17:54.874Z,35.78
2022-10-17T12:19:11.444Z,36.03
2022-10-17T12:20:34.412Z,36.16
2022-10-17T12:21:54.782Z,36.00
2022-10-17T12:22:54.571Z,36.05
2022-10-17T12:23:54.154Z,35.77
2022-10-17T12:25:00.626Z,35.89
2022-10-17T12:26:04.521Z,36.61
2022-10-17T12:27:42.509Z,35.98
2022-10-17T12:28:46.372Z,36.10
2022-10-17T12:29:43.145Z,36.54
2022-10-17T12:31:12.454Z,36.80
2022-10-17T12:32:13.242Z,37.09
2022-10-17T12:33:09.881Z,37.14
2022-10-17T12:34:15.722Z,36.05
2022-10-17T12:35:21.413Z,36.43
2022-10-17T12:36:27.490Z,36.23
2022-10-17T12:37:42.960Z,36.54
2022-10-17T12:38:39.889Z,35.55
2022-10-17T12:39:36.505Z,35.56
2022-10-17T12:40:36.263Z,35.18
2022-10-17T12:41:38.755Z,35.63
2022-10-17T12:42:49.093Z,35.72
2022-10-17T12:44:53.419Z,35.43
2022-10-17T12:45:56.257Z,35.20
2022-10-17T12:47:10.983Z,35.09
2022-10-17T12:48:11.300Z,35.12
2022-10-17T12:49:39.886Z,35.06
2022-10-17T12:51:34.802Z,35.48
2022-10-17T12:52:43.583Z,35.52
2022-10-17T12:53:46.503Z,35.90
2022-10-17T12:55:14.296Z,36.25
2022-10-17T12:56:12.008Z,36.78
2022-10-17T12:57:47.656Z,36.27
2022-10-17T12:58:51.273Z,37.19
2022-10-17T12:59:49.010Z,36.96
2022-10-17T13:02:21.899Z,37.23
2022-10-17T13:03:35.191Z,36.84
2022-10-17T13:04:36.409Z,36.56
2022-10-17T13:05:40.257Z,36.56
2022-10-17T13:06:44.935Z,36.78
2022-10-17T13:07:45.519Z,36.33
2022-10-17T13:08:56.087Z,35.52
2022-10-17T13:09:54.840Z,36.16
2022-10-17T13:10:54.580Z,36.21
2022-10-17T13:11:52.683Z,36.05
2022-10-17T13:12:53.485Z,36.02
2022-10-17T13:13:54.484Z,35.58
2022-10-17T13:14:54.755Z,36.15
2022-10-17T13:15:53.956Z,36.29
2022-10-17T13:16:58.453Z,36.34
2022-10-17T13:17:57.334Z,36.24